Time;durP1;ratioP1;P1;durP2;ratioP2;P2;SDS_P1;SDS_P2;PMS_P1;PMS_P2;Temp;Humidity;BMP_temperature;BMP_pressure;BME280_temperature;BME280_humidity;BME280_pressure;Samples;Min_cycle;Max_cycle;Signal;HPM_P1;HPM_P2
2021/11/30 00:01:55;;;;;;;4.50;3.03;;;5.00;80.70;;;;;;5097156;28;20468;-42
2021/11/30 00:04:29;;;;;;;3.60;3.30;;;5.00;80.80;;;;;;5098712;28;20837;-42
2021/11/30 00:07:00;;;;;;;4.03;3.27;;;5.00;80.60;;;;;;5096153;28;20460;-42
2021/11/30 00:12:08;;;;;;;7.03;3.63;;;5.00;80.90;;;;;;5095517;28;20452;-42
2021/11/30 00:14:36;;;;;;;8.33;3.93;;;5.00;80.90;;;;;;5082285;28;20486;-41
2021/11/30 00:17:04;;;;;;;5.90;3.73;;;5.00;81.00;;;;;;5095946;28;20469;-41
2021/11/30 00:19:32;;;;;;;5.20;3.10;;;5.00;81.00;;;;;;5093989;28;20498;-41
2021/11/30 00:21:59;;;;;;;7.40;3.63;;;5.00;81.00;;;;;;5082009;28;20455;-41
2021/11/30 00:24:29;;;;;;;5.40;3.40;;;5.00;81.00;;;;;;5092002;28;20475;-41
2021/11/30 00:26:57;;;;;;;7.13;4.27;;;5.00;81.40;;;;;;5097764;28;20462;-42
2021/11/30 00:29:24;;;;;;;4.83;3.90;;;5.00;81.40;;;;;;5070941;27;20465;-42
2021/11/30 00:31:51;;;;;;;4.90;3.37;;;5.00;81.40;;;;;;5096373;28;20471;-42
2021/11/30 00:34:18;;;;;;;5.20;3.50;;;5.00;81.20;;;;;;5093928;28;20811;-42
2021/11/30 00:36:45;;;;;;;7.27;3.60;;;5.00;81.10;;;;;;5096198;28;20863;-42
2021/11/30 00:39:12;;;;;;;3.60;2.90;;;4.90;81.00;;;;;;5095536;27;20496;-42
2021/11/30 00:41:44;;;;;;;4.73;3.30;;;5.00;80.70;;;;;;5080342;28;20472;-42
2021/11/30 00:44:14;;;;;;;10.63;3.53;;;5.00;80.50;;;;;;5097144;28;20857;-43
2021/11/30 00:46:41;;;;;;;4.47;3.40;;;5.00;80.40;;;;;;5079779;28;20456;-43
2021/11/30 00:49:10;;;;;;;6.80;3.67;;;4.90;80.40;;;;;;5095686;28;20460;-42
2021/11/30 00:51:40;;;;;;;5.57;3.43;;;5.00;80.00;;;;;;5094967;28;20456;-42
2021/11/30 00:54:10;;;;;;;5.57;3.80;;;5.00;80.10;;;;;;5094652;28;20455;-42
2021/11/30 00:56:39;;;;;;;4.10;3.23;;;5.00;80.20;;;;;;5098603;28;20478;-42
2021/11/30 00:59:07;;;;;;;4.10;3.00;;;5.00;80.10;;;;;;5095335;27;21123;-41
2021/11/30 01:01:34;;;;;;;4.50;3.17;;;4.90;79.60;;;;;;5074727;28;20464;-41
2021/11/30 01:04:01;;;;;;;3.30;3.00;;;5.00;79.20;;;;;;5097824;28;20451;-42
2021/11/30 01:06:28;;;;;;;3.53;3.23;;;4.90;79.20;;;;;;5080447;28;20448;-42
2021/11/30 01:08:55;;;;;;;4.47;3.00;;;5.00;79.10;;;;;;5099935;27;20451;-41
2021/11/30 01:11:22;;;;;;;3.57;2.93;;;5.00;79.20;;;;;;5094448;28;20455;-41
2021/11/30 01:13:49;;;;;;;4.00;3.60;;;5.00;78.90;;;;;;5100768;27;20463;-41
2021/11/30 01:16:16;;;;;;;5.27;3.10;;;5.00;78.90;;;;;;5093153;28;20444;-41
2021/11/30 01:18:43;;;;;;;5.47;3.40;;;4.90;79.20;;;;;;5093899;27;20529;-41
2021/11/30 01:21:09;;;;;;;4.50;3.10;;;4.90;79.10;;;;;;5094167;28;21020;-41
2021/11/30 01:23:36;;;;;;;5.13;2.97;;;4.90;78.90;;;;;;5099181;28;20457;-41
2021/11/30 01:26:03;;;;;;;4.00;3.10;;;5.00;78.60;;;;;;5101048;28;20447;-42
2021/11/30 01:28:31;;;;;;;4.47;3.83;;;5.00;78.60;;;;;;5095662;28;20709;-42
2021/11/30 01:30:58;;;;;;;7.97;3.33;;;5.00;78.30;;;;;;5077064;28;20456;-42
2021/11/30 01:33:25;;;;;;;6.43;2.70;;;4.90;78.20;;;;;;5102572;27;20453;-42
2021/11/30 01:35:52;;;;;;;4.77;3.20;;;4.90;78.40;;;;;;5087134;28;20455;-42
2021/11/30 01:38:19;;;;;;;2.90;2.63;;;4.90;78.50;;;;;;5081720;28;20484;-43
2021/11/30 01:40:46;;;;;;;3.73;2.53;;;5.00;78.50;;;;;;5092855;28;20462;-42
2021/11/30 01:43:19;;;;;;;3.30;2.87;;;5.00;78.40;;;;;;5095410;28;20943;-42
2021/11/30 01:45:57;;;;;;;3.77;2.53;;;4.90;78.30;;;;;;5096781;28;20448;-42
2021/11/30 01:50:58;;;;;;;14.17;3.47;;;4.90;78.10;;;;;;5099218;27;20460;-43
2021/11/30 01:53:25;;;;;;;4.20;2.43;;;4.90;77.80;;;;;;5078047;28;20460;-42
2021/11/30 01:55:53;;;;;;;6.93;2.90;;;4.90;78.10;;;;;;5097468;28;20990;-42
2021/11/30 01:58:20;;;;;;;2.80;2.50;;;4.90;78.40;;;;;;5090770;28;20486;-42
2021/11/30 02:00:48;;;;;;;2.60;2.40;;;4.80;78.10;;;;;;5077567;28;20448;-42
2021/11/30 02:03:15;;;;;;;3.57;2.03;;;4.80;77.90;;;;;;5079586;28;20476;-42
2021/11/30 02:05:42;;;;;;;4.23;2.23;;;4.80;78.40;;;;;;5096203;28;20500;-42
2021/11/30 02:08:10;;;;;;;4.47;2.33;;;4.80;77.70;;;;;;5082611;28;20460;-42
2021/11/30 02:10:39;;;;;;;2.47;2.27;;;4.80;77.90;;;;;;5096914;28;20487;-42
2021/11/30 02:13:06;;;;;;;3.20;2.57;;;4.80;77.80;;;;;;5098743;28;20539;-42
2021/11/30 02:15:39;;;;;;;3.43;3.13;;;4.80;77.80;;;;;;5088202;28;20483;-42
2021/11/30 02:18:12;;;;;;;2.70;2.50;;;4.70;77.50;;;;;;5096588;28;21002;-42
2021/11/30 02:20:45;;;;;;;5.90;2.10;;;4.70;77.70;;;;;;5080042;28;20998;-42
2021/11/30 02:25:59;;;;;;;2.47;2.27;;;4.70;77.00;;;;;;5091203;28;21817;-42
2021/11/30 02:28:26;;;;;;;2.40;2.20;;;4.70;76.90;;;;;;5078854;28;20465;-42
2021/11/30 02:30:53;;;;;;;2.40;2.20;;;4.60;77.50;;;;;;5090104;28;20463;-42
2021/11/30 02:33:20;;;;;;;2.87;1.93;;;4.60;77.40;;;;;;5094106;28;20992;-42
2021/11/30 02:35:47;;;;;;;2.47;2.37;;;4.60;77.20;;;;;;5090260;28;20463;-42
2021/11/30 02:38:13;;;;;;;2.60;2.40;;;4.60;76.80;;;;;;5091816;28;20514;-42
2021/11/30 02:40:41;;;;;;;4.50;2.03;;;4.60;76.90;;;;;;5095490;28;20458;-42
2021/11/30 02:43:08;;;;;;;4.00;2.70;;;4.60;76.80;;;;;;5081502;28;20460;-42
2021/11/30 02:45:35;;;;;;;2.53;2.33;;;4.60;76.30;;;;;;5082302;28;20451;-42
2021/11/30 02:48:03;;;;;;;4.03;3.70;;;4.60;76.50;;;;;;5079823;28;20464;-42
2021/11/30 02:50:38;;;;;;;6.20;2.77;;;4.60;76.30;;;;;;5092567;28;20456;-42
2021/11/30 02:53:06;;;;;;;3.93;2.47;;;4.60;76.40;;;;;;5096355;28;20466;-42
2021/11/30 02:55:34;;;;;;;4.03;2.13;;;4.60;76.80;;;;;;5092949;28;20498;-42
2021/11/30 02:58:00;;;;;;;2.40;2.20;;;4.60;76.70;;;;;;5079362;28;20460;-42
2021/11/30 03:00:27;;;;;;;3.40;3.00;;;4.60;76.60;;;;;;5076540;28;20464;-42
2021/11/30 03:02:54;;;;;;;3.17;2.73;;;4.60;76.50;;;;;;5092459;28;20464;-42
2021/11/30 03:05:21;;;;;;;2.60;2.40;;;4.60;76.30;;;;;;5076671;28;20452;-42
2021/11/30 03:07:47;;;;;;;2.40;2.20;;;4.50;76.70;;;;;;5093590;28;20444;-43
2021/11/30 03:10:17;;;;;;;2.30;2.20;;;4.50;76.80;;;;;;5094970;28;20464;-43
2021/11/30 03:12:46;;;;;;;3.40;2.50;;;4.50;76.70;;;;;;5097048;28;20456;-42
2021/11/30 03:15:17;;;;;;;3.63;2.90;;;4.50;76.90;;;;;;5094256;28;20460;-42
2021/11/30 03:17:45;;;;;;;2.50;2.30;;;4.50;77.10;;;;;;5077778;28;20453;-42
2021/11/30 03:20:12;;;;;;;3.43;2.67;;;4.40;77.20;;;;;;5097676;28;20566;-42
2021/11/30 03:22:39;;;;;;;2.27;2.17;;;4.40;77.00;;;;;;5100592;28;20465;-42
2021/11/30 03:25:08;;;;;;;4.43;2.83;;;4.40;76.90;;;;;;5100695;28;20459;-42
2021/11/30 03:27:36;;;;;;;2.30;1.93;;;4.40;76.90;;;;;;5101512;27;20947;-42
2021/11/30 03:30:06;;;;;;;6.80;2.40;;;4.40;76.80;;;;;;5096440;28;20458;-43
2021/11/30 03:35:05;;;;;;;3.10;2.77;;;4.40;77.20;;;;;;5097965;28;20838;-43
2021/11/30 03:37:32;;;;;;;2.30;2.10;;;4.40;77.00;;;;;;5099147;27;20457;-43
2021/11/30 03:39:59;;;;;;;4.30;2.20;;;4.40;77.10;;;;;;5099220;28;20496;-43
2021/11/30 03:42:26;;;;;;;2.37;2.17;;;4.40;77.50;;;;;;5085580;28;20467;-43
2021/11/30 03:44:53;;;;;;;3.00;2.80;;;4.40;77.60;;;;;;5099134;28;20462;-43
2021/11/30 03:47:22;;;;;;;3.30;3.00;;;4.40;77.60;;;;;;5081558;28;20449;-43
2021/11/30 03:49:49;;;;;;;3.80;2.47;;;4.50;77.80;;;;;;5092981;28;20452;-43
2021/11/30 03:52:16;;;;;;;3.50;3.20;;;4.50;78.30;;;;;;5098381;28;20484;-43
2021/11/30 03:54:42;;;;;;;3.07;2.83;;;4.40;79.00;;;;;;5088909;28;20490;-43
2021/11/30 03:57:09;;;;;;;5.63;3.17;;;4.50;79.60;;;;;;5082200;28;20471;-43
2021/11/30 03:59:36;;;;;;;3.20;2.87;;;4.40;79.70;;;;;;5080977;28;20484;-43
2021/11/30 04:02:03;;;;;;;3.93;3.47;;;4.40;80.70;;;;;;5080760;28;20490;-43
2021/11/30 04:04:35;;;;;;;6.43;3.13;;;4.40;80.80;;;;;;5099868;27;21000;-43
2021/11/30 04:07:02;;;;;;;3.07;2.60;;;4.40;81.20;;;;;;5082566;28;20452;-43
2021/11/30 04:09:28;;;;;;;4.87;3.23;;;4.40;80.60;;;;;;5097017;27;20452;-42
2021/11/30 04:11:55;;;;;;;3.07;2.60;;;4.40;80.80;;;;;;5082653;28;20535;-42
2021/11/30 04:14:25;;;;;;;9.97;4.97;;;4.40;80.80;;;;;;5080954;28;20520;-42
2021/11/30 04:16:52;;;;;;;3.80;3.03;;;4.40;81.00;;;;;;5079071;28;20498;-42
2021/11/30 04:19:19;;;;;;;3.13;2.60;;;4.40;81.30;;;;;;5089069;28;20475;-42
2021/11/30 04:21:46;;;;;;;3.43;2.40;;;4.40;81.00;;;;;;5085890;28;20446;-42
2021/11/30 04:24:14;;;;;;;5.00;3.57;;;4.40;81.10;;;;;;5078834;28;20688;-42
2021/11/30 04:26:41;;;;;;;3.90;3.07;;;4.40;81.40;;;;;;5103450;28;20451;-42
2021/11/30 04:29:08;;;;;;;3.50;3.20;;;4.40;81.90;;;;;;5103913;28;20449;-42
2021/11/30 04:31:35;;;;;;;8.80;3.73;;;4.40;81.70;;;;;;5095709;28;20463;-42
2021/11/30 04:34:03;;;;;;;3.83;3.30;;;4.40;82.50;;;;;;5095420;28;21023;-42
2021/11/30 04:36:32;;;;;;;6.13;3.77;;;4.40;83.00;;;;;;5081591;28;21042;-42
2021/11/30 04:38:59;;;;;;;4.50;3.60;;;4.40;83.60;;;;;;5086519;28;20541;-42
2021/11/30 04:41:26;;;;;;;4.07;3.40;;;4.40;83.50;;;;;;5096411;28;20456;-42
2021/11/30 04:43:55;;;;;;;3.40;3.10;;;4.40;83.90;;;;;;5100738;27;20452;-42
2021/11/30 04:49:04;;;;;;;7.57;4.80;;;4.30;84.60;;;;;;5095924;28;20875;-42
2021/11/30 04:51:32;;;;;;;8.27;4.67;;;4.20;84.80;;;;;;5097030;28;20451;-42
2021/11/30 04:53:59;;;;;;;7.97;4.53;;;4.20;85.00;;;;;;5084194;28;20454;-42
2021/11/30 04:56:26;;;;;;;5.80;3.97;;;4.20;85.40;;;;;;5095076;28;20519;-42
2021/11/30 04:58:53;;;;;;;5.30;4.27;;;4.20;85.70;;;;;;5094844;28;20487;-42
2021/11/30 05:01:20;;;;;;;8.00;4.43;;;4.20;85.50;;;;;;5097048;28;20445;-42
2021/11/30 05:03:49;;;;;;;6.23;4.70;;;4.20;86.30;;;;;;5099382;28;20452;-42
2021/11/30 05:06:16;;;;;;;7.97;4.77;;;4.20;86.60;;;;;;5094532;28;20451;-42
2021/11/30 05:08:43;;;;;;;6.83;4.53;;;4.20;86.40;;;;;;5080422;28;20982;-42
2021/11/30 05:11:10;;;;;;;5.60;4.20;;;4.20;86.60;;;;;;5098250;28;20465;-42
2021/11/30 05:13:37;;;;;;;5.50;4.37;;;4.20;86.40;;;;;;5095064;28;20457;-42
2021/11/30 05:16:04;;;;;;;5.13;4.63;;;4.20;86.40;;;;;;5080737;28;20457;-42
2021/11/30 05:18:30;;;;;;;3.87;3.57;;;4.20;86.90;;;;;;5096173;28;20453;-42
2021/11/30 05:20:59;;;;;;;7.77;4.70;;;4.20;86.80;;;;;;5096279;28;20467;-42
2021/11/30 05:23:28;;;;;;;5.53;5.03;;;4.20;86.90;;;;;;5081235;28;20852;-42
2021/11/30 05:25:59;;;;;;;4.17;3.77;;;4.20;87.10;;;;;;5079655;28;20487;-41
2021/11/30 05:28:27;;;;;;;4.53;3.90;;;4.20;87.00;;;;;;5097536;28;20852;-41
2021/11/30 05:30:58;;;;;;;4.10;3.70;;;4.10;87.40;;;;;;5095992;28;20535;-41
2021/11/30 05:33:25;;;;;;;6.20;4.97;;;4.10;87.30;;;;;;5078822;28;20456;-41
2021/11/30 05:35:52;;;;;;;6.00;4.53;;;4.00;87.30;;;;;;5099947;28;20535;-41
2021/11/30 05:38:19;;;;;;;5.53;5.00;;;4.00;87.80;;;;;;5103339;27;20540;-42
2021/11/30 05:40:47;;;;;;;5.37;4.70;;;4.00;88.00;;;;;;5099668;28;20518;-42
2021/11/30 05:43:14;;;;;;;5.47;4.60;;;4.00;87.80;;;;;;5096423;27;20532;-41
2021/11/30 05:45:42;;;;;;;4.70;4.23;;;3.90;87.60;;;;;;5092597;27;20754;-41
2021/11/30 05:48:09;;;;;;;5.00;4.37;;;3.90;88.20;;;;;;5095882;28;20457;-41
2021/11/30 05:50:36;;;;;;;4.87;4.10;;;3.90;88.30;;;;;;5095256;28;20457;-41
2021/11/30 05:53:04;;;;;;;8.40;3.53;;;3.80;88.50;;;;;;5094893;28;20841;-41
2021/11/30 05:55:31;;;;;;;7.83;3.60;;;3.80;88.60;;;;;;5061581;28;20646;-41
2021/11/30 05:57:58;;;;;;;5.27;4.30;;;3.80;88.40;;;;;;5081541;28;20824;-41
2021/11/30 06:00:27;;;;;;;4.67;4.27;;;3.70;88.60;;;;;;5076910;28;20479;-41
2021/11/30 06:03:19;;;;;;;3.63;3.33;;;3.70;88.80;;;;;;5097074;27;20451;-41
2021/11/30 06:05:47;;;;;;;5.13;4.63;;;3.70;89.00;;;;;;5093857;28;20476;-42
2021/11/30 06:08:13;;;;;;;5.73;4.60;;;3.70;89.30;;;;;;5077617;28;20448;-41
2021/11/30 06:10:41;;;;;;;3.70;3.40;;;3.60;89.30;;;;;;5095862;28;20451;-41
2021/11/30 06:13:07;;;;;;;3.90;3.50;;;3.60;89.70;;;;;;5079096;28;20463;-41
2021/11/30 06:15:34;;;;;;;4.10;3.50;;;3.60;89.50;;;;;;5091798;28;20463;-41
2021/11/30 06:18:01;;;;;;;4.33;3.90;;;3.70;89.30;;;;;;5079545;28;20501;-41
2021/11/30 06:20:28;;;;;;;3.60;3.30;;;3.70;89.00;;;;;;5080212;28;21010;-41
2021/11/30 06:22:55;;;;;;;4.10;3.70;;;3.70;89.00;;;;;;5097896;28;20455;-41
2021/11/30 06:25:21;;;;;;;4.03;3.30;;;3.60;89.30;;;;;;5097293;28;20479;-41
2021/11/30 06:27:48;;;;;;;4.87;2.97;;;3.60;89.70;;;;;;5084106;28;20450;-41
2021/11/30 06:30:15;;;;;;;4.73;3.40;;;3.60;89.60;;;;;;5076213;28;20946;-41
2021/11/30 06:32:42;;;;;;;3.37;3.13;;;3.60;89.10;;;;;;5094994;28;20452;-41
2021/11/30 06:35:09;;;;;;;2.80;2.60;;;3.60;89.30;;;;;;5094262;28;20441;-41
2021/11/30 06:37:36;;;;;;;3.23;3.00;;;3.60;89.80;;;;;;5093551;28;20464;-41
2021/11/30 06:40:04;;;;;;;3.10;2.87;;;3.60;89.70;;;;;;5074381;28;20496;-41
2021/11/30 06:42:31;;;;;;;3.23;2.93;;;3.60;89.50;;;;;;5073472;28;20469;-41
2021/11/30 06:44:57;;;;;;;3.00;2.80;;;3.60;89.80;;;;;;5079410;28;20451;-41
2021/11/30 06:47:24;;;;;;;3.50;2.50;;;3.60;89.70;;;;;;5080755;28;20464;-41
2021/11/30 06:49:51;;;;;;;5.53;3.87;;;3.60;89.80;;;;;;5080157;28;20465;-41
2021/11/30 06:52:18;;;;;;;3.30;3.00;;;3.60;89.60;;;;;;5092509;28;20463;-41
2021/11/30 06:54:47;;;;;;;2.77;2.20;;;3.60;89.50;;;;;;5095170;27;20471;-41
2021/11/30 06:57:14;;;;;;;2.97;2.77;;;3.50;89.60;;;;;;5095618;28;20467;-41
2021/11/30 06:59:43;;;;;;;3.40;2.83;;;3.50;89.80;;;;;;5098781;28;21117;-41
2021/11/30 07:02:10;;;;;;;2.40;2.30;;;3.50;89.80;;;;;;5078792;28;20481;-41
2021/11/30 07:04:40;;;;;;;1.93;1.83;;;3.60;89.80;;;;;;5098442;28;20449;-41
2021/11/30 07:10:06;;;;;;;2.83;2.60;;;3.60;89.80;;;;;;5099828;28;20470;-41
2021/11/30 07:15:08;;;;;;;2.90;2.27;;;3.60;89.80;;;;;;5101835;27;20470;-41
2021/11/30 07:17:35;;;;;;;1.97;1.77;;;3.60;89.80;;;;;;5085925;28;20449;-41
2021/11/30 07:20:04;;;;;;;2.27;2.07;;;3.60;89.70;;;;;;5096719;28;20716;-41
2021/11/30 07:22:31;;;;;;;2.63;2.20;;;3.70;89.80;;;;;;5079442;28;20452;-41
2021/11/30 07:24:58;;;;;;;2.37;2.07;;;3.60;89.50;;;;;;5082065;28;20456;-41
2021/11/30 07:27:25;;;;;;;2.30;2.10;;;3.60;89.80;;;;;;5097429;28;20448;-41
2021/11/30 07:29:52;;;;;;;2.40;2.20;;;3.60;89.80;;;;;;5068382;28;20491;-41
2021/11/30 07:32:19;;;;;;;2.63;2.37;;;3.70;89.80;;;;;;5081346;28;20457;-41
2021/11/30 07:34:45;;;;;;;2.20;2.10;;;3.70;89.80;;;;;;5081206;28;20444;-41
2021/11/30 07:37:12;;;;;;;1.83;1.70;;;3.70;89.80;;;;;;5099098;28;20829;-40
2021/11/30 07:39:39;;;;;;;1.63;1.53;;;3.70;89.80;;;;;;5063682;28;20476;-41
2021/11/30 07:42:06;;;;;;;2.83;1.80;;;3.70;89.80;;;;;;5085084;28;20457;-40
2021/11/30 07:44:33;;;;;;;2.03;1.93;;;3.60;89.80;;;;;;5095203;28;20955;-40
2021/11/30 07:47:00;;;;;;;1.57;1.47;;;3.60;89.80;;;;;;5082578;28;20453;-40
2021/11/30 07:49:27;;;;;;;1.77;1.67;;;3.60;89.80;;;;;;5097341;28;20893;-40
2021/11/30 07:51:54;;;;;;;1.90;1.80;;;3.60;89.80;;;;;;5096035;27;20460;-40
2021/11/30 07:54:21;;;;;;;1.90;1.47;;;3.60;89.80;;;;;;5099699;27;20462;-40
2021/11/30 07:56:48;;;;;;;1.30;1.27;;;3.70;89.80;;;;;;5098247;28;20892;-41
2021/11/30 07:59:15;;;;;;;1.57;1.47;;;3.70;89.80;;;;;;5088986;28;20917;-41
2021/11/30 08:01:42;;;;;;;1.50;1.40;;;3.70;89.80;;;;;;5094486;28;20456;-41
2021/11/30 08:04:09;;;;;;;1.90;1.80;;;3.70;89.80;;;;;;5096585;27;21002;-41
2021/11/30 08:06:35;;;;;;;1.53;1.30;;;3.70;89.80;;;;;;5091711;28;20870;-41
2021/11/30 08:09:03;;;;;;;1.13;1.10;;;3.70;89.80;;;;;;5095192;28;20874;-41
2021/11/30 08:11:30;;;;;;;1.13;1.03;;;3.80;89.80;;;;;;5097287;28;20459;-42
2021/11/30 08:13:57;;;;;;;1.53;1.43;;;3.80;89.80;;;;;;5080867;28;20543;-41
2021/11/30 08:16:23;;;;;;;1.37;1.27;;;3.80;89.80;;;;;;5078584;28;20449;-41
2021/11/30 08:18:50;;;;;;;1.20;1.10;;;3.80;89.80;;;;;;5098796;27;20456;-41
2021/11/30 08:21:17;;;;;;;1.53;1.43;;;3.80;89.80;;;;;;5095333;27;20484;-41
2021/11/30 08:23:44;;;;;;;2.30;1.73;;;3.80;89.80;;;;;;5097386;28;20458;-41
2021/11/30 08:26:12;;;;;;;0.70;0.70;;;3.80;89.80;;;;;;5098918;28;20528;-41
2021/11/30 08:28:40;;;;;;;1.40;1.30;;;3.80;89.80;;;;;;5077677;28;20456;-41
2021/11/30 08:31:07;;;;;;;1.40;1.30;;;3.90;89.80;;;;;;5080429;27;21140;-41
2021/11/30 08:33:34;;;;;;;0.73;0.70;;;3.90;89.80;;;;;;5086965;28;20494;-41
2021/11/30 08:36:01;;;;;;;0.90;0.90;;;3.90;89.80;;;;;;5084648;28;20444;-41
2021/11/30 08:38:28;;;;;;;0.67;0.67;;;3.90;89.80;;;;;;5100780;27;20499;-41
2021/11/30 08:40:56;;;;;;;1.00;1.00;;;3.90;89.80;;;;;;5087547;28;21006;-41
2021/11/30 08:43:23;;;;;;;1.00;1.00;;;3.90;89.80;;;;;;5095879;27;22464;-41
2021/11/30 08:45:52;;;;;;;1.07;0.93;;;3.90;89.80;;;;;;5088928;28;20462;-41
2021/11/30 08:48:19;;;;;;;0.70;0.63;;;3.90;89.80;;;;;;5095330;27;20445;-41
2021/11/30 08:50:46;;;;;;;1.00;0.80;;;3.90;89.80;;;;;;5097490;27;20484;-41
2021/11/30 08:53:13;;;;;;;0.53;0.53;;;4.00;89.80;;;;;;5098660;28;20859;-41
2021/11/30 08:55:40;;;;;;;0.60;0.60;;;4.00;89.80;;;;;;5099390;27;20472;-41
2021/11/30 08:58:07;;;;;;;0.80;0.70;;;4.00;89.80;;;;;;5082428;28;20456;-41
2021/11/30 09:00:35;;;;;;;0.60;0.60;;;4.00;89.80;;;;;;5077368;28;20490;-41
2021/11/30 09:03:02;;;;;;;1.10;1.10;;;4.10;89.80;;;;;;5095825;28;20934;-41
2021/11/30 09:05:29;;;;;;;0.50;0.50;;;4.10;89.80;;;;;;5095563;28;20504;-41
2021/11/30 09:07:57;;;;;;;0.77;0.77;;;4.10;89.80;;;;;;5087516;28;20458;-41
2021/11/30 09:10:25;;;;;;;0.80;0.80;;;4.10;89.80;;;;;;5094080;28;20457;-41
2021/11/30 09:12:52;;;;;;;0.70;0.67;;;4.20;89.80;;;;;;5080088;28;20471;-41
2021/11/30 09:15:19;;;;;;;1.73;0.80;;;4.20;89.80;;;;;;5100306;28;20484;-41
2021/11/30 09:17:49;;;;;;;0.93;0.83;;;4.20;89.80;;;;;;5096767;28;20463;-41
2021/11/30 09:20:16;;;;;;;0.53;0.53;;;4.20;89.80;;;;;;5097897;28;20483;-41
2021/11/30 09:22:44;;;;;;;0.80;0.53;;;4.30;89.80;;;;;;5079072;28;20460;-41
2021/11/30 09:25:11;;;;;;;0.50;0.50;;;4.30;89.80;;;;;;5098636;28;20544;-41
2021/11/30 09:27:39;;;;;;;1.63;1.20;;;4.30;89.80;;;;;;5102606;27;20576;-42
2021/11/30 09:30:09;;;;;;;0.60;0.57;;;4.30;89.80;;;;;;5098285;28;20493;-41
2021/11/30 09:32:36;;;;;;;1.13;0.67;;;4.30;89.80;;;;;;5080439;28;20459;-41
2021/11/30 09:35:09;;;;;;;0.60;0.60;;;4.30;89.80;;;;;;5104709;27;20454;-41
2021/11/30 09:37:38;;;;;;;0.60;0.60;;;4.40;89.80;;;;;;5097030;27;20457;-41
2021/11/30 09:40:14;;;;;;;0.63;0.63;;;4.40;89.80;;;;;;5081137;28;20562;-42
2021/11/30 09:42:43;;;;;;;0.90;0.90;;;4.40;89.80;;;;;;5096057;28;20467;-41
2021/11/30 09:45:11;;;;;;;0.77;0.77;;;4.40;89.80;;;;;;5096185;28;20866;-41
2021/11/30 09:47:40;;;;;;;0.83;0.83;;;4.50;89.80;;;;;;5099496;28;20444;-41
2021/11/30 09:50:09;;;;;;;0.80;0.80;;;4.50;89.80;;;;;;5078774;28;20971;-41
2021/11/30 09:52:36;;;;;;;0.70;0.60;;;4.50;89.80;;;;;;5099003;28;20482;-41
2021/11/30 09:55:04;;;;;;;0.50;0.50;;;4.60;89.80;;;;;;5098668;27;20459;-41
2021/11/30 09:57:31;;;;;;;0.80;0.80;;;4.60;89.80;;;;;;5094050;28;20468;-41
2021/11/30 09:59:59;;;;;;;0.97;0.80;;;4.70;89.80;;;;;;5097276;28;20479;-41
2021/11/30 10:02:45;;;;;;;1.70;0.73;;;4.70;89.80;;;;;;5086032;28;20704;-41
2021/11/30 10:05:12;;;;;;;0.83;0.70;;;4.70;89.80;;;;;;5085298;28;20502;-41
2021/11/30 10:07:41;;;;;;;0.87;0.80;;;4.70;89.80;;;;;;5096478;28;20449;-41
2021/11/30 10:10:18;;;;;;;1.43;1.00;;;4.80;89.80;;;;;;5097415;28;20466;-41
2021/11/30 10:12:53;;;;;;;0.97;0.90;;;4.80;89.80;;;;;;5062302;28;20440;-41
2021/11/30 10:15:20;;;;;;;0.90;0.90;;;4.80;89.80;;;;;;5084451;28;20447;-41
2021/11/30 10:17:47;;;;;;;1.83;1.03;;;4.90;89.80;;;;;;5098030;28;20452;-41
2021/11/30 10:20:18;;;;;;;1.20;1.03;;;4.90;89.80;;;;;;5097003;28;20480;-41
2021/11/30 10:22:51;;;;;;;1.10;1.00;;;4.90;89.80;;;;;;5080413;28;20449;-42
2021/11/30 10:25:21;;;;;;;0.63;0.63;;;5.00;89.80;;;;;;5096382;28;20447;-42
2021/11/30 10:28:11;;;;;;;1.07;0.97;;;5.00;89.80;;;;;;5083579;27;20448;-41
2021/11/30 10:30:40;;;;;;;1.63;0.90;;;5.00;89.80;;;;;;5084260;28;20444;-41
2021/11/30 10:33:16;;;;;;;1.40;1.37;;;5.00;89.80;;;;;;5085056;28;20590;-41
2021/11/30 10:35:44;;;;;;;1.30;1.20;;;5.00;89.80;;;;;;5104025;27;20457;-41
2021/11/30 10:38:11;;;;;;;2.57;1.07;;;4.90;89.80;;;;;;5099905;27;20538;-41
2021/11/30 10:40:40;;;;;;;1.40;1.30;;;5.00;89.80;;;;;;5102191;28;20499;-42
2021/11/30 10:43:09;;;;;;;1.00;1.00;;;5.00;89.80;;;;;;5097608;28;20535;-42
2021/11/30 10:45:47;;;;;;;2.27;0.90;;;5.00;89.80;;;;;;5101583;28;20515;-41
2021/11/30 10:48:22;;;;;;;1.73;1.50;;;5.00;89.80;;;;;;5082010;28;20539;-41
2021/11/30 10:50:50;;;;;;;1.10;1.10;;;5.00;89.80;;;;;;5084283;28;20456;-41
2021/11/30 10:53:22;;;;;;;1.53;1.43;;;5.10;89.80;;;;;;5102897;28;20460;-42
2021/11/30 10:55:54;;;;;;;1.60;1.50;;;5.10;89.80;;;;;;5092481;28;20474;-42
2021/11/30 10:58:28;;;;;;;1.87;1.70;;;5.10;89.80;;;;;;5094382;28;20544;-42
2021/11/30 11:00:57;;;;;;;2.47;1.30;;;5.10;89.80;;;;;;5097040;28;21057;-42
2021/11/30 11:03:25;;;;;;;1.70;1.50;;;5.20;89.80;;;;;;5095769;28;20449;-42
2021/11/30 11:08:50;;;;;;;2.27;2.07;;;5.20;89.80;;;;;;5098798;28;20455;-42
2021/11/30 11:11:21;;;;;;;1.57;1.40;;;5.20;89.80;;;;;;5096165;28;20463;-42
2021/11/30 11:13:49;;;;;;;1.83;1.73;;;5.30;89.80;;;;;;5081876;28;20835;-42
2021/11/30 11:16:24;;;;;;;1.13;1.00;;;5.30;89.80;;;;;;5078889;28;20456;-42
2021/11/30 11:18:57;;;;;;;1.60;1.50;;;5.40;89.80;;;;;;5094316;28;20480;-42
2021/11/30 11:21:27;;;;;;;1.97;1.83;;;5.40;89.80;;;;;;5082368;28;20495;-42
2021/11/30 11:23:57;;;;;;;1.67;1.57;;;5.40;89.80;;;;;;5099681;28;20484;-42
2021/11/30 11:26:30;;;;;;;2.20;1.60;;;5.40;89.80;;;;;;5099086;27;20464;-42
2021/11/30 11:29:00;;;;;;;2.17;1.27;;;5.50;89.80;;;;;;5097035;28;20449;-42
2021/11/30 11:31:28;;;;;;;1.63;1.53;;;5.50;89.80;;;;;;5082839;28;20457;-42
2021/11/30 11:33:56;;;;;;;3.13;1.80;;;5.50;89.80;;;;;;5096429;28;21000;-42
2021/11/30 11:36:24;;;;;;;1.70;1.60;;;5.50;89.80;;;;;;5079945;28;20541;-42
2021/11/30 11:38:51;;;;;;;1.80;1.70;;;5.60;89.80;;;;;;5081405;28;20452;-43
2021/11/30 11:41:19;;;;;;;1.30;1.30;;;5.60;89.80;;;;;;5080993;28;20514;-42
2021/11/30 11:43:46;;;;;;;1.83;1.10;;;5.70;89.80;;;;;;5098363;28;20452;-42
2021/11/30 11:46:16;;;;;;;0.90;0.90;;;5.70;89.80;;;;;;5099515;28;20458;-42
2021/11/30 11:48:45;;;;;;;2.03;1.87;;;5.70;89.80;;;;;;5098070;28;20436;-42
2021/11/30 11:51:12;;;;;;;3.77;1.30;;;5.70;89.80;;;;;;5096460;28;20460;-42
2021/11/30 11:53:52;;;;;;;1.07;1.07;;;5.70;89.80;;;;;;5081418;28;20448;-42
2021/11/30 11:56:24;;;;;;;0.70;0.70;;;5.80;89.80;;;;;;5079240;28;20468;-42
2021/11/30 11:59:11;;;;;;;0.50;0.40;;;5.80;89.80;;;;;;5080457;28;20447;-42
2021/11/30 12:01:41;;;;;;;0.77;0.77;;;5.80;89.80;;;;;;5081056;28;20484;-42
2021/11/30 12:04:12;;;;;;;2.20;1.00;;;5.80;89.80;;;;;;5104008;27;20449;-41
2021/11/30 12:06:59;;;;;;;1.30;1.20;;;5.80;89.80;;;;;;5083084;27;20456;-41
2021/11/30 12:09:28;;;;;;;1.03;1.03;;;5.80;89.80;;;;;;5086136;28;21026;-41
2021/11/30 12:12:21;;;;;;;0.60;0.60;;;5.80;89.80;;;;;;5077498;28;20462;-41
2021/11/30 12:15:00;;;;;;;1.23;1.00;;;5.80;89.80;;;;;;5096530;28;20452;-42
2021/11/30 12:17:28;;;;;;;0.77;0.67;;;5.80;89.80;;;;;;5085888;28;20453;-42
2021/11/30 12:19:58;;;;;;;0.50;0.50;;;5.80;89.80;;;;;;5081685;28;20457;-42
2021/11/30 12:22:49;;;;;;;0.60;0.60;;;5.90;89.80;;;;;;5100237;27;20512;-42
2021/11/30 12:25:25;;;;;;;2.40;0.80;;;5.80;89.80;;;;;;5099933;28;20451;-42
2021/11/30 12:28:04;;;;;;;0.77;0.77;;;5.80;89.80;;;;;;5098052;27;20460;-42
2021/11/30 12:30:38;;;;;;;0.67;0.60;;;5.80;89.80;;;;;;5093269;28;20448;-42
2021/11/30 12:33:13;;;;;;;0.50;0.50;;;5.80;89.80;;;;;;5096359;27;20449;-42
2021/11/30 12:35:56;;;;;;;1.23;0.93;;;5.90;89.80;;;;;;5094742;28;20456;-42
2021/11/30 12:38:36;;;;;;;2.70;0.50;;;5.90;89.80;;;;;;5094140;28;20449;-42
2021/11/30 12:41:27;;;;;;;0.40;0.40;;;5.90;89.80;;;;;;5088817;28;21096;-42
2021/11/30 12:43:57;;;;;;;0.53;0.53;;;5.90;89.80;;;;;;5079203;28;20804;-42
2021/11/30 12:46:37;;;;;;;0.60;0.60;;;5.90;89.80;;;;;;5086195;28;20447;-42
2021/11/30 12:49:23;;;;;;;0.67;0.67;;;6.00;89.80;;;;;;5099874;28;20448;-42
2021/11/30 12:52:16;;;;;;;0.40;0.40;;;6.00;89.80;;;;;;5096537;27;20461;-42
2021/11/30 12:54:46;;;;;;;0.50;0.50;;;6.00;89.80;;;;;;5087373;28;20497;-42
2021/11/30 12:57:20;;;;;;;0.77;0.77;;;6.10;89.80;;;;;;5097287;28;20846;-43
2021/11/30 12:59:50;;;;;;;0.40;0.40;;;6.10;89.80;;;;;;5066449;28;20780;-42
2021/11/30 13:02:41;;;;;;;0.53;0.50;;;6.10;89.80;;;;;;5097136;28;20484;-42
2021/11/30 13:05:08;;;;;;;0.80;0.63;;;6.10;89.80;;;;;;5096444;28;21092;-42
2021/11/30 13:08:01;;;;;;;1.27;0.70;;;6.10;89.80;;;;;;5084788;28;20452;-42
2021/11/30 13:10:36;;;;;;;0.63;0.50;;;6.10;89.80;;;;;;5096580;28;20492;-42
2021/11/30 13:13:17;;;;;;;0.53;0.53;;;6.10;89.80;;;;;;5099396;28;20470;-42
2021/11/30 13:15:56;;;;;;;0.47;0.47;;;6.20;89.80;;;;;;5087500;28;20466;-42
2021/11/30 13:18:26;;;;;;;0.50;0.50;;;6.20;89.80;;;;;;5078505;28;20457;-42
2021/11/30 13:20:54;;;;;;;0.40;0.40;;;6.30;89.80;;;;;;5066036;28;20463;-42
2021/11/30 13:23:24;;;;;;;0.87;0.60;;;6.30;89.80;;;;;;5097484;28;20455;-42
2021/11/30 13:25:51;;;;;;;0.53;0.53;;;6.30;89.80;;;;;;5096466;28;20455;-43
2021/11/30 13:28:21;;;;;;;0.80;0.80;;;6.30;89.80;;;;;;5095301;28;21961;-43
2021/11/30 13:30:51;;;;;;;0.50;0.50;;;6.40;89.80;;;;;;5098077;28;20871;-41